createdAt,value
2017-11-27T00:02:22.687Z,16.00
2017-11-27T00:04:51.032Z,16.00
2017-11-27T00:07:18.559Z,16.00
2017-11-27T00:09:46.096Z,16.00
2017-11-27T00:12:13.647Z,16.00
2017-11-27T00:14:41.240Z,16.00
2017-11-27T00:17:08.800Z,16.00
2017-11-27T00:19:36.371Z,16.00
2017-11-27T00:22:03.940Z,16.00
2017-11-27T00:24:31.460Z,16.00
2017-11-27T00:26:59.024Z,16.00
2017-11-27T00:29:26.582Z,16.00
2017-11-27T00:31:54.100Z,16.00
2017-11-27T00:34:21.624Z,16.00
2017-11-27T00:36:49.131Z,15.90
2017-11-27T00:39:17.051Z,16.00
2017-11-27T00:41:44.604Z,15.90
2017-11-27T00:44:12.132Z,16.00
2017-11-27T00:46:39.676Z,15.90
2017-11-27T00:49:08.008Z,16.00
2017-11-27T00:51:35.550Z,15.90
2017-11-27T00:54:03.087Z,15.90
2017-11-27T00:56:31.399Z,15.90
2017-11-27T00:58:58.916Z,15.90
2017-11-27T01:01:27.188Z,15.90
2017-11-27T01:03:54.724Z,15.90
2017-11-27T01:06:22.251Z,15.90
2017-11-27T01:08:49.759Z,15.90
2017-11-27T01:11:18.072Z,15.90
2017-11-27T01:13:45.591Z,15.90
2017-11-27T01:16:13.100Z,15.90
2017-11-27T01:18:40.672Z,15.90
2017-11-27T01:21:08.212Z,15.90
2017-11-27T01:23:35.743Z,15.90
2017-11-27T01:26:04.078Z,15.90
2017-11-27T01:28:31.620Z,15.90
2017-11-27T01:30:59.120Z,15.90
2017-11-27T01:33:26.742Z,15.90
2017-11-27T01:35:54.255Z,15.90
2017-11-27T01:38:22.525Z,15.90
2017-11-27T01:40:50.520Z,15.90
2017-11-27T01:43:18.055Z,15.90
2017-11-27T01:45:46.327Z,15.90
2017-11-27T01:48:14.255Z,15.90
2017-11-27T01:50:41.752Z,15.90
2017-11-27T01:53:09.255Z,15.90
2017-11-27T01:55:36.808Z,15.90
2017-11-27T01:58:04.335Z,15.90
2017-11-27T02:00:31.889Z,15.90
2017-11-27T02:02:59.462Z,15.90
2017-11-27T02:05:27.786Z,15.90
2017-11-27T02:07:55.337Z,15.90
2017-11-27T02:10:22.871Z,15.90
2017-11-27T02:12:51.147Z,15.90
2017-11-27T02:15:19.423Z,15.90
2017-11-27T02:17:47.430Z,15.90
2017-11-27T02:20:14.967Z,15.80
2017-11-27T02:22:42.503Z,15.90
2017-11-27T02:25:10.855Z,15.80
2017-11-27T02:27:38.404Z,15.80
2017-11-27T02:30:05.921Z,15.90
2017-11-27T02:32:33.474Z,15.90
2017-11-27T02:35:01.003Z,15.80
2017-11-27T02:37:28.517Z,15.80
2017-11-27T02:39:56.495Z,15.80
2017-11-27T02:42:24.007Z,15.90
2017-11-27T02:44:52.292Z,15.80
2017-11-27T02:47:20.696Z,15.80
2017-11-27T02:49:48.240Z,15.80
2017-11-27T02:52:15.747Z,15.80
2017-11-27T02:54:43.308Z,15.80
2017-11-27T02:57:10.835Z,15.80
2017-11-27T02:59:38.343Z,15.80
2017-11-27T03:02:05.906Z,15.80
2017-11-27T03:04:37.004Z,15.80
2017-11-27T03:07:05.375Z,15.80
2017-11-27T03:09:32.883Z,15.80
2017-11-27T03:12:00.429Z,15.80
2017-11-27T03:14:27.969Z,15.80
2017-11-27T03:16:55.492Z,15.80
2017-11-27T03:19:23.780Z,15.80
2017-11-27T03:21:51.327Z,15.80
2017-11-27T03:24:19.639Z,15.80
2017-11-27T03:26:47.159Z,15.70
2017-11-27T03:29:15.480Z,15.80
2017-11-27T03:31:43.001Z,15.70
2017-11-27T03:34:11.271Z,15.80
2017-11-27T03:36:39.579Z,15.80
2017-11-27T03:39:07.084Z,15.70
2017-11-27T03:41:34.598Z,15.80
2017-11-27T03:44:02.132Z,15.80
2017-11-27T03:46:30.427Z,15.80
2017-11-27T03:48:57.944Z,15.80
2017-11-27T03:51:25.472Z,15.70
2017-11-27T03:53:53.003Z,15.70
2017-11-27T03:56:21.194Z,15.70
2017-11-27T03:58:48.739Z,15.70
2017-11-27T04:01:16.295Z,15.70
2017-11-27T04:03:43.827Z,15.70
2017-11-27T04:06:12.131Z,15.70
2017-11-27T04:08:39.659Z,15.70
2017-11-27T04:11:07.967Z,15.70
2017-11-27T04:13:35.512Z,15.70
2017-11-27T04:16:03.809Z,15.70
2017-11-27T04:18:31.348Z,15.70
2017-11-27T04:20:59.676Z,15.70
2017-11-27T04:23:27.219Z,15.70
2017-11-27T04:25:54.743Z,15.70
2017-11-27T04:28:23.047Z,15.70
2017-11-27T04:30:50.547Z,15.70
2017-11-27T04:33:18.059Z,15.70
2017-11-27T04:35:45.653Z,15.70
2017-11-27T04:38:13.164Z,15.70
2017-11-27T04:40:41.483Z,15.70
2017-11-27T04:43:09.059Z,15.70
2017-11-27T04:45:36.591Z,15.70
2017-11-27T04:48:04.104Z,15.70
2017-11-27T04:50:32.441Z,15.70
2017-11-27T04:52:59.979Z,15.60
2017-11-27T04:55:27.496Z,15.70
2017-11-27T04:57:55.068Z,15.70
2017-11-27T05:00:23.359Z,15.70
2017-11-27T05:02:50.893Z,15.60
2017-11-27T05:05:19.219Z,15.60
2017-11-27T05:07:46.768Z,15.60
2017-11-27T05:10:14.288Z,15.60
2017-11-27T05:12:41.812Z,15.60
2017-11-27T05:15:09.331Z,15.60
2017-11-27T05:17:36.863Z,15.60
2017-11-27T05:20:04.888Z,15.70
2017-11-27T05:22:32.416Z,15.70
2017-11-27T05:25:00.521Z,15.70
2017-11-27T05:27:28.451Z,15.80
2017-11-27T05:29:56.740Z,15.80
2017-11-27T05:32:24.242Z,15.80
2017-11-27T05:34:51.760Z,15.80
2017-11-27T05:37:19.312Z,15.80
2017-11-27T05:39:46.827Z,15.90
2017-11-27T05:42:14.386Z,15.90
2017-11-27T05:44:41.919Z,15.90
2017-11-27T05:47:09.420Z,15.90
2017-11-27T05:49:36.968Z,15.90
2017-11-27T05:52:04.504Z,15.90
2017-11-27T05:54:32.833Z,15.90
2017-11-27T05:57:01.171Z,15.90
2017-11-27T05:59:28.680Z,15.90
2017-11-27T06:01:56.975Z,15.90
2017-11-27T06:04:24.553Z,15.90
2017-11-27T06:06:52.076Z,15.90
2017-11-27T06:09:20.389Z,15.90
2017-11-27T06:11:47.911Z,15.90
2017-11-27T06:14:16.214Z,15.90
2017-11-27T06:16:43.738Z,15.90
2017-11-27T06:19:12.031Z,15.90
2017-11-27T06:21:40.320Z,15.90
2017-11-27T06:24:08.609Z,15.90
2017-11-27T06:26:36.199Z,15.90
2017-11-27T06:29:03.705Z,15.90
2017-11-27T06:31:31.235Z,15.90
2017-11-27T06:33:58.788Z,15.90
2017-11-27T06:36:26.331Z,15.90
2017-11-27T06:38:53.895Z,15.90
2017-11-27T06:41:21.452Z,15.90
2017-11-27T06:43:49.108Z,15.80
2017-11-27T06:46:16.631Z,15.90
2017-11-27T06:48:44.197Z,15.90
2017-11-27T06:51:11.707Z,15.80
2017-11-27T06:53:39.228Z,15.80
2017-11-27T06:56:06.763Z,15.90
2017-11-27T06:58:34.352Z,15.80
2017-11-27T07:01:01.889Z,15.80
2017-11-27T07:03:29.471Z,15.80
2017-11-27T07:05:57.014Z,15.80
2017-11-27T07:08:24.548Z,15.80
2017-11-27T07:10:52.852Z,15.80
2017-11-27T07:13:20.376Z,15.80
2017-11-27T07:15:47.920Z,15.80
2017-11-27T07:18:15.467Z,15.80
2017-11-27T07:20:43.415Z,15.80
2017-11-27T07:23:10.948Z,15.80
2017-11-27T07:25:38.549Z,15.80
2017-11-27T07:28:06.072Z,15.80
2017-11-27T07:30:34.005Z,15.80
2017-11-27T07:33:01.547Z,15.80
2017-11-27T07:35:29.117Z,15.80
2017-11-27T07:38:02.356Z,15.80
2017-11-27T07:40:29.860Z,15.80
2017-11-27T07:42:57.395Z,15.80
2017-11-27T07:45:24.951Z,15.80
2017-11-27T07:47:52.464Z,15.80
2017-11-27T07:50:20.768Z,15.80
2017-11-27T07:52:48.305Z,15.80
2017-11-27T07:55:16.587Z,15.80
2017-11-27T07:57:44.880Z,15.70
2017-11-27T08:00:12.419Z,15.70
2017-11-27T08:02:40.708Z,15.70
2017-11-27T08:05:08.239Z,15.70
2017-11-27T08:07:35.819Z,15.70
2017-11-27T08:10:04.095Z,15.70
2017-11-27T08:12:32.400Z,15.70
2017-11-27T08:14:59.927Z,15.70
2017-11-27T08:17:28.228Z,15.70
2017-11-27T08:19:55.763Z,15.70
2017-11-27T08:22:24.497Z,15.70
2017-11-27T08:24:52.011Z,15.70
2017-11-27T08:27:20.283Z,15.70
2017-11-27T08:29:48.964Z,15.70
2017-11-27T08:32:17.230Z,15.70
2017-11-27T08:34:44.779Z,15.70
2017-11-27T08:37:12.305Z,15.70
2017-11-27T08:39:39.844Z,15.70
2017-11-27T08:42:07.442Z,15.70
2017-11-27T08:44:34.971Z,15.70
2017-11-27T08:47:02.503Z,15.70
2017-11-27T08:49:30.804Z,15.70
2017-11-27T08:51:58.348Z,15.70
2017-11-27T08:54:26.624Z,15.60
2017-11-27T08:56:54.925Z,15.70
2017-11-27T08:59:22.457Z,15.60
2017-11-27T09:01:50.756Z,15.70
2017-11-27T09:04:18.307Z,15.70
2017-11-27T09:06:47.028Z,15.70
2017-11-27T09:09:14.565Z,15.60
2017-11-27T09:11:42.160Z,15.60
2017-11-27T09:14:09.692Z,15.60
2017-11-27T09:16:37.235Z,15.60
2017-11-27T09:19:04.815Z,15.60
2017-11-27T09:21:32.336Z,15.60
2017-11-27T09:23:59.843Z,15.60
2017-11-27T09:26:27.583Z,15.50
2017-11-27T09:28:55.125Z,15.50
2017-11-27T09:31:23.424Z,15.50
2017-11-27T09:33:51.083Z,15.60
2017-11-27T09:36:18.632Z,15.60
2017-11-27T09:38:46.908Z,15.60
2017-11-27T09:41:15.237Z,15.60
2017-11-27T09:43:42.748Z,15.50
2017-11-27T09:46:11.048Z,15.50
2017-11-27T09:48:38.651Z,15.50
2017-11-27T09:51:06.205Z,15.50
2017-11-27T09:53:33.716Z,15.50
2017-11-27T09:56:01.269Z,15.60
2017-11-27T09:58:28.807Z,15.60
2017-11-27T10:00:57.077Z,15.60
2017-11-27T10:03:24.652Z,15.60
2017-11-27T10:05:52.947Z,15.60
2017-11-27T10:08:20.531Z,15.50
2017-11-27T10:10:48.067Z,15.50
2017-11-27T10:13:15.592Z,15.50
2017-11-27T10:15:43.147Z,15.50
2017-11-27T10:18:10.739Z,15.50
2017-11-27T10:20:38.303Z,15.60
2017-11-27T10:23:05.831Z,15.50
2017-11-27T10:25:33.427Z,15.50
2017-11-27T10:28:00.961Z,15.50
2017-11-27T10:30:29.263Z,15.50
2017-11-27T10:32:56.819Z,15.50
2017-11-27T10:35:28.191Z,15.50
2017-11-27T10:37:56.988Z,15.40
2017-11-27T10:40:24.548Z,15.40
2017-11-27T10:42:52.163Z,15.40
2017-11-27T10:45:20.478Z,15.40
2017-11-27T10:47:47.991Z,15.40
2017-11-27T10:50:15.523Z,15.40
2017-11-27T10:52:43.096Z,15.50
2017-11-27T10:55:10.639Z,15.40
2017-11-27T10:57:38.152Z,15.40
2017-11-27T11:00:05.750Z,15.40
2017-11-27T11:02:33.267Z,15.40
2017-11-27T11:05:01.552Z,15.40
2017-11-27T11:07:29.096Z,15.40
2017-11-27T11:09:57.024Z,15.40
2017-11-27T11:12:24.689Z,15.40
2017-11-27T11:14:52.225Z,15.40
2017-11-27T11:17:19.766Z,15.40
2017-11-27T11:19:47.288Z,15.40
2017-11-27T11:22:14.840Z,15.40
2017-11-27T11:24:42.348Z,15.40
2017-11-27T11:27:09.887Z,15.40
2017-11-27T11:29:37.456Z,15.40
2017-11-27T11:32:05.731Z,15.50
2017-11-27T11:34:34.015Z,15.50
2017-11-27T11:37:01.568Z,15.40
2017-11-27T11:39:29.107Z,15.50
2017-11-27T11:41:57.382Z,15.60
2017-11-27T11:44:24.911Z,15.60
2017-11-27T11:46:52.422Z,15.60
2017-11-27T11:49:19.969Z,15.60
2017-11-27T11:51:48.268Z,15.70
2017-11-27T11:54:15.802Z,15.70
2017-11-27T11:56:44.083Z,15.70
2017-11-27T11:59:12.404Z,15.70
2017-11-27T12:01:39.976Z,15.70
2017-11-27T12:04:07.471Z,15.80
2017-11-27T12:06:35.771Z,15.80
2017-11-27T12:09:04.048Z,15.80
2017-11-27T12:11:31.559Z,15.80
2017-11-27T12:13:59.129Z,15.80
2017-11-27T12:16:26.680Z,15.90
2017-11-27T12:18:54.213Z,15.90
2017-11-27T12:21:21.779Z,15.90
2017-11-27T12:23:49.312Z,15.90
2017-11-27T12:26:16.862Z,15.90
2017-11-27T12:28:44.408Z,15.90
2017-11-27T12:31:12.724Z,15.90
2017-11-27T12:33:40.267Z,15.90
2017-11-27T12:36:07.816Z,15.90
2017-11-27T12:38:36.103Z,15.90
2017-11-27T12:41:03.656Z,15.90
2017-11-27T12:43:31.247Z,16.00
2017-11-27T12:45:58.751Z,16.00
2017-11-27T12:48:26.286Z,16.00
2017-11-27T12:50:53.851Z,16.00
2017-11-27T12:53:21.396Z,16.00
2017-11-27T12:55:48.914Z,16.00
2017-11-27T12:58:17.268Z,16.00
2017-11-27T13:00:44.821Z,15.90
2017-11-27T13:03:12.361Z,16.00
2017-11-27T13:05:40.617Z,16.00
2017-11-27T13:08:08.152Z,16.00
2017-11-27T13:10:35.672Z,16.00
2017-11-27T13:13:03.267Z,15.90
2017-11-27T13:15:31.540Z,16.00
2017-11-27T13:17:59.835Z,15.90
2017-11-27T13:20:27.447Z,15.90
2017-11-27T13:22:54.984Z,15.90
2017-11-27T13:25:22.650Z,15.90
2017-11-27T13:27:50.202Z,16.00
2017-11-27T13:30:17.712Z,15.90
2017-11-27T13:32:45.256Z,15.90
2017-11-27T13:35:12.816Z,15.90
2017-11-27T13:37:40.745Z,15.90
2017-11-27T13:40:08.251Z,15.90
2017-11-27T13:42:36.563Z,15.90
2017-11-27T13:45:04.089Z,15.90
2017-11-27T13:47:32.028Z,15.90
2017-11-27T13:49:59.637Z,15.90
2017-11-27T13:52:27.192Z,15.90
2017-11-27T13:54:55.519Z,15.90
2017-11-27T13:57:23.073Z,15.90
2017-11-27T13:59:50.620Z,15.90
2017-11-27T14:02:18.158Z,15.90
2017-11-27T14:04:45.725Z,15.90
2017-11-27T14:07:13.277Z,15.90
2017-11-27T14:09:40.821Z,15.90
2017-11-27T14:12:08.388Z,15.90
2017-11-27T14:14:35.928Z,15.80
2017-11-27T14:17:03.464Z,15.80
2017-11-27T14:19:31.029Z,15.80
2017-11-27T14:21:58.601Z,15.80
2017-11-27T14:24:26.227Z,15.80
2017-11-27T14:26:53.816Z,15.90
2017-11-27T14:29:22.867Z,15.80
2017-11-27T14:31:50.423Z,15.80
2017-11-27T14:34:18.608Z,15.80
2017-11-27T14:36:46.585Z,15.80
2017-11-27T14:39:14.128Z,15.80
2017-11-27T14:41:41.706Z,15.80
2017-11-27T14:44:09.264Z,15.80
2017-11-27T14:46:36.780Z,15.80
2017-11-27T14:49:05.111Z,15.80
2017-11-27T14:51:32.660Z,15.80
2017-11-27T14:54:00.210Z,15.80
2017-11-27T14:56:27.768Z,15.80
2017-11-27T14:58:55.295Z,15.80
2017-11-27T15:01:23.568Z,15.80
2017-11-27T15:03:55.573Z,15.80
2017-11-27T15:06:23.103Z,15.80
2017-11-27T15:08:51.401Z,15.80
2017-11-27T15:11:18.984Z,15.80
2017-11-27T15:13:46.548Z,15.80
2017-11-27T15:16:14.491Z,15.80
2017-11-27T15:18:42.051Z,15.80
2017-11-27T15:21:09.580Z,15.80
2017-11-27T15:23:37.891Z,15.80
2017-11-27T15:26:05.447Z,15.70
2017-11-27T15:28:32.959Z,15.80
2017-11-27T15:31:00.501Z,15.80
2017-11-27T15:33:28.056Z,15.80
2017-11-27T15:35:56.027Z,15.80
2017-11-27T15:38:23.539Z,15.70
2017-11-27T15:40:51.842Z,15.70
2017-11-27T15:43:19.391Z,15.70
2017-11-27T15:45:46.908Z,15.80
2017-11-27T15:48:14.511Z,15.80
2017-11-27T15:50:42.028Z,15.80
2017-11-27T15:53:09.555Z,15.80
2017-11-27T15:55:37.111Z,15.80
2017-11-27T15:58:05.419Z,15.80
2017-11-27T16:00:33.728Z,15.70
2017-11-27T16:03:01.320Z,15.70
2017-11-27T16:05:28.844Z,15.80
2017-11-27T16:07:57.124Z,15.80
2017-11-27T16:10:25.421Z,15.70
2017-11-27T16:12:53.040Z,15.70
2017-11-27T16:15:20.585Z,15.70
2017-11-27T16:17:48.135Z,15.70
2017-11-27T16:20:15.716Z,15.70
2017-11-27T16:22:43.238Z,15.70
2017-11-27T16:25:10.800Z,15.70
2017-11-27T16:27:38.471Z,15.70
2017-11-27T16:30:06.033Z,15.70
2017-11-27T16:32:33.580Z,15.70
2017-11-27T16:35:01.101Z,15.70
2017-11-27T16:37:29.437Z,15.70
2017-11-27T16:39:57.032Z,15.70
2017-11-27T16:42:25.312Z,15.70
2017-11-27T16:44:53.588Z,15.70
2017-11-27T16:47:21.947Z,15.70
2017-11-27T16:49:49.488Z,15.70
2017-11-27T16:52:17.025Z,15.70
2017-11-27T16:54:44.616Z,15.70
2017-11-27T16:57:12.135Z,15.70
2017-11-27T16:59:39.692Z,15.70
2017-11-27T17:02:07.248Z,15.70
2017-11-27T17:04:34.794Z,15.70
2017-11-27T17:07:02.314Z,15.70
2017-11-27T17:09:29.859Z,15.70
2017-11-27T17:11:57.399Z,15.70
2017-11-27T17:14:24.940Z,15.70
2017-11-27T17:16:52.559Z,15.70
2017-11-27T17:19:20.071Z,15.70
2017-11-27T17:21:47.641Z,15.70
2017-11-27T17:24:15.221Z,15.70
2017-11-27T17:26:44.532Z,15.70
2017-11-27T17:29:12.075Z,15.70
2017-11-27T17:31:39.632Z,15.70
2017-11-27T17:34:07.174Z,15.70
2017-11-27T17:36:34.746Z,15.70
2017-11-27T17:39:02.406Z,15.70
2017-11-27T17:41:29.925Z,15.70
2017-11-27T17:43:57.491Z,15.70
2017-11-27T17:46:25.094Z,15.70
2017-11-27T17:48:52.646Z,15.70
2017-11-27T17:51:20.319Z,15.70
2017-11-27T17:53:47.936Z,15.70
2017-11-27T17:56:15.525Z,15.70
2017-11-27T17:58:43.097Z,15.70
2017-11-27T18:01:10.688Z,15.70
2017-11-27T18:03:38.236Z,15.70
2017-11-27T18:06:05.777Z,15.70
2017-11-27T18:08:33.391Z,15.70
2017-11-27T18:11:01.709Z,15.70
2017-11-27T18:13:29.257Z,15.70
2017-11-27T18:15:56.840Z,15.70
2017-11-27T18:18:24.404Z,15.70
2017-11-27T18:20:52.009Z,15.70
2017-11-27T18:23:20.347Z,15.70
2017-11-27T18:25:47.900Z,15.70
2017-11-27T18:28:15.445Z,15.70
2017-11-27T18:30:43.024Z,15.70
2017-11-27T18:33:10.562Z,15.70
2017-11-27T18:35:38.106Z,15.70
2017-11-27T18:38:05.655Z,15.70
2017-11-27T18:40:34.049Z,15.70
2017-11-27T18:43:01.599Z,15.60
2017-11-27T18:45:29.204Z,15.70
2017-11-27T18:47:56.791Z,15.70
2017-11-27T18:50:25.124Z,15.70
2017-11-27T18:52:52.703Z,15.60
2017-11-27T18:55:20.260Z,15.70
2017-11-27T18:57:47.867Z,15.70
2017-11-27T19:00:16.223Z,15.70
2017-11-27T19:02:43.788Z,15.70
2017-11-27T19:05:11.365Z,15.70
2017-11-27T19:07:39.748Z,15.70
2017-11-27T19:10:07.310Z,15.70
2017-11-27T19:12:34.862Z,15.70
2017-11-27T19:15:03.285Z,15.70
2017-11-27T19:17:30.871Z,15.60
2017-11-27T19:19:58.430Z,15.70
2017-11-27T19:22:25.992Z,15.70
2017-11-27T19:24:53.545Z,15.70
2017-11-27T19:27:21.125Z,15.70
2017-11-27T19:29:49.140Z,15.70
2017-11-27T19:32:16.719Z,15.70
2017-11-27T19:34:44.308Z,15.70
2017-11-27T19:37:11.972Z,15.80
2017-11-27T19:39:39.544Z,15.80
2017-11-27T19:42:07.107Z,15.80
2017-11-27T19:44:35.491Z,15.90
2017-11-27T19:47:03.855Z,15.90
2017-11-27T19:49:31.411Z,15.90
2017-11-27T19:51:59.025Z,15.90
2017-11-27T19:54:26.594Z,16.00
2017-11-27T19:56:54.164Z,16.00
2017-11-27T19:59:21.765Z,16.00
2017-11-27T20:01:49.352Z,16.10
2017-11-27T20:04:17.360Z,16.00
2017-11-27T20:06:44.977Z,16.10
2017-11-27T20:09:13.396Z,16.10
2017-11-27T20:11:41.160Z,16.10
2017-11-27T20:14:09.128Z,16.20
2017-11-27T20:16:39.453Z,16.20
2017-11-27T20:19:07.218Z,16.20
2017-11-27T20:21:34.826Z,16.20
2017-11-27T20:24:02.409Z,16.20
2017-11-27T20:26:30.408Z,16.20
2017-11-27T20:31:31.254Z,16.30
2017-11-27T20:33:58.913Z,16.30
2017-11-27T20:36:26.556Z,16.30
2017-11-27T20:38:54.141Z,16.30
2017-11-27T20:41:22.952Z,16.30
2017-11-27T20:43:51.448Z,16.30
2017-11-27T20:46:19.286Z,16.40
2017-11-27T20:48:48.484Z,16.40
2017-11-27T20:51:21.163Z,16.40
2017-11-27T20:53:48.940Z,16.40
2017-11-27T20:56:17.345Z,16.40
2017-11-27T20:58:47.741Z,16.40
2017-11-27T21:01:16.160Z,16.40
2017-11-27T21:03:44.186Z,16.40
2017-11-27T21:06:12.795Z,16.40
2017-11-27T21:08:42.135Z,16.40
2017-11-27T21:11:09.762Z,16.40
2017-11-27T21:13:38.403Z,16.40
2017-11-27T21:16:07.198Z,16.40
2017-11-27T21:18:34.796Z,16.40
2017-11-27T21:21:02.349Z,16.40
2017-11-27T21:23:30.076Z,16.40
2017-11-27T21:25:57.960Z,16.40
2017-11-27T21:28:26.358Z,16.40
2017-11-27T21:30:55.017Z,16.40
2017-11-27T21:33:22.656Z,16.40
2017-11-27T21:35:50.614Z,16.40
2017-11-27T21:38:19.042Z,16.40
2017-11-27T21:40:47.388Z,16.40
2017-11-27T21:43:15.335Z,16.40
2017-11-27T21:45:43.673Z,16.40
2017-11-27T21:48:11.328Z,16.40
2017-11-27T21:50:38.872Z,16.40
2017-11-27T21:53:06.443Z,16.40
2017-11-27T21:55:33.991Z,16.30
2017-11-27T21:58:01.560Z,16.40
2017-11-27T22:00:29.128Z,16.40
2017-11-27T22:02:56.684Z,16.30
2017-11-27T22:05:24.255Z,16.40
2017-11-27T22:07:51.861Z,16.30
2017-11-27T22:10:20.269Z,16.30
2017-11-27T22:12:47.820Z,16.30
2017-11-27T22:15:15.436Z,16.30
2017-11-27T22:17:43.871Z,16.30
2017-11-27T22:20:11.716Z,16.30
2017-11-27T22:22:40.060Z,16.30
2017-11-27T22:25:07.644Z,16.20
2017-11-27T22:27:35.927Z,16.30
2017-11-27T22:30:05.608Z,16.30
2017-11-27T22:32:33.956Z,16.30
2017-11-27T22:35:01.467Z,16.20
2017-11-27T22:37:29.780Z,16.30
2017-11-27T22:39:57.285Z,16.30
2017-11-27T22:42:24.810Z,16.30
2017-11-27T22:44:52.362Z,16.30
2017-11-27T22:47:19.867Z,16.30
2017-11-27T22:49:47.395Z,16.30
2017-11-27T22:52:15.052Z,16.30
2017-11-27T22:54:42.579Z,16.30
2017-11-27T22:57:10.124Z,16.30
2017-11-27T22:59:38.477Z,16.20
2017-11-27T23:02:06.002Z,16.20
2017-11-27T23:04:33.547Z,16.20
2017-11-27T23:07:01.085Z,16.20
2017-11-27T23:09:29.411Z,16.20
2017-11-27T23:11:56.919Z,16.20
2017-11-27T23:14:25.277Z,16.20
2017-11-27T23:16:52.800Z,16.10
2017-11-27T23:19:20.332Z,16.20
2017-11-27T23:21:47.888Z,16.20
2017-11-27T23:24:15.414Z,16.10
2017-11-27T23:26:42.952Z,16.20
2017-11-27T23:29:10.477Z,16.10
2017-11-27T23:31:38.039Z,16.10
2017-11-27T23:34:05.567Z,16.10
2017-11-27T23:36:33.140Z,16.10
2017-11-27T23:39:00.692Z,16.10
2017-11-27T23:41:29.016Z,16.10
2017-11-27T23:43:56.599Z,16.10
2017-11-27T23:46:24.101Z,16.10
2017-11-27T23:48:52.399Z,16.10
2017-11-27T23:51:19.928Z,16.00
2017-11-27T23:53:48.459Z,16.10
2017-11-27T23:56:15.972Z,16.10
2017-11-27T23:58:44.316Z,16.10
